Annapolis, WA

8:05 PM PDT on August 27, 2014 (GMT -0700)
Strawberry Hill | Change Station
CLOSE
Current Station
Personal Weather Station
Location: Port Orchard, WA
Elevation: 340 ft
Nearby Weather Stations

Elev 340 ft 47.48 °N, 122.61 °W | Updated 4 minutes ago

Clear
Clear
73.3 °F
Feels Like 76 °F
N
0.0
Wind Variable Wind from North
Gusts 0.0 mph

Today
High -- | Low -- °F
--% Chance of Precip.
Yesterday
High -- | Low -- °F
Precip. -- in
6:22 AM 8:00 PM
Waxing Crescent, 6% visible
Pressure 30.05 in
Visibility 10.0 miles
Clouds Clear
Heat Index 76 °F
Dew Point 60 °F
Humidity 63%
Rainfall 0.00 in
Snow Depth Not available.
UV 0 out of 12
Pollen 3.80 out of 12
Air Quality Not available.
Flu Activity Not available.
METAR KPWT 280255Z AUTO 20004KT 10SM CLR 23/17 A3005 RMK AO1 52003

More Conditions Fewer Conditions

Pressure 30.05 in
Visibility 10.0 miles
Clouds Clear
Heat Index 76 °F
Dew Point 60 °F
Humidity 63%
Rainfall 0.00 in
Snow Depth Not available.
UV 0 out of 12
Pollen 3.80 out of 12
Air Quality Not available.
Flu Activity Not available.
METAR KPWT 280255Z AUTO 20004KT 10SM CLR 23/17 A3005 RMK AO1 52003

More Conditions Fewer Conditions

10-Day Weather Forecast

Almanac

Astronomy

Aug. 27, 2014 Rise Set
Actual Time 6:22 AM PDT 8:00 PM PDT
Civil Twilight 5:50 AM PDT 8:32 PM PDT
Nautical Twilight 5:10 AM PDT 9:11 PM PDT
Astronomical Twilight 4:27 AM PDT 9:54 PM PDT
Moon 8:35 AM PDT (8/27) 8:42 PM PDT (8/27)
Length of Visible Light 14h 42m
Length of Day
13h 37m
Tomorrow will be 3m 15s shorter.
Waxing Crescent, 6% of the Moon is Illuminated
Today
Waxing Crescent
Sep 2
First Quarter
Sep 8
Full
Sep 15
Last Quarter
Sep 24
New

Today's Extremes

State Highs State Lows

Community

WunderPhotos

Upload Photos

1,747,888 photos uploaded!

Nearby

Snow Depth

Station Depth Elevation
Dungeness 0 in 4100 ft
Alpine Meadows 0 in 3500 ft
Burnt Mountain 0 in 4200 ft
Meadows Pass 0 in 3500 ft
Olallie Meadows 2 in 3700 ft

Earthquake Activity

City Distance Mag. Time & Date
No recent earthquake activity has been reported nearby.
Minimum magnitude displayed is 2.5.

Coastal Water Temperatures

Place Temperature
Port Townsend, WA 53.1 °F
Seattle, WA 55.9 °F
Friday Harbor, WA 53.1 °F
Tacoma, WA 55.9 °F

Nearby Weather Stations